createdAt,value
2017-01-28T00:00:21.573Z,-3.24
2017-01-28T00:01:21.974Z,-3.39
2017-01-28T00:03:21.997Z,-3.36
2017-01-28T00:04:22.041Z,-3.42
2017-01-28T00:05:22.027Z,-3.31
2017-01-28T00:06:22.035Z,-3.38
2017-01-28T00:07:36.576Z,-3.36
2017-01-28T00:08:22.058Z,-3.27
2017-01-28T00:09:22.071Z,-3.27
2017-01-28T00:10:22.081Z,-3.27
2017-01-28T00:11:22.093Z,-3.39
2017-01-28T00:12:22.106Z,-3.38
2017-01-28T00:13:22.118Z,-3.45
2017-01-28T00:14:36.661Z,-3.49
2017-01-28T00:15:22.145Z,-3.38
2017-01-28T00:16:22.181Z,-3.49
2017-01-28T00:17:22.167Z,-3.53
2017-01-28T00:18:22.178Z,-3.56
2017-01-28T00:19:22.217Z,-3.59
2017-01-28T00:20:22.198Z,-3.6
2017-01-28T00:21:22.242Z,-3.64
2017-01-28T00:22:22.223Z,-3.56
2017-01-28T00:23:22.245Z,-3.59
2017-01-28T00:24:22.248Z,-3.59
2017-01-28T00:25:22.262Z,-3.57
2017-01-28T00:26:22.276Z,-3.45
2017-01-28T00:27:22.290Z,-3.48
2017-01-28T00:28:22.300Z,-3.52
2017-01-28T00:29:36.454Z,-3.48
2017-01-28T00:30:22.319Z,-3.41
2017-01-28T00:32:22.344Z,-3.54
2017-01-28T00:33:22.358Z,-3.52
2017-01-28T00:34:22.412Z,-3.56
2017-01-28T00:35:22.381Z,-3.62
2017-01-28T00:36:22.389Z,-3.78
2017-01-28T00:37:22.403Z,-3.69
2017-01-28T00:38:22.417Z,-3.63
2017-01-28T00:39:22.428Z,-3.72
2017-01-28T00:40:22.439Z,-3.59
2017-01-28T00:41:22.455Z,-3.62
2017-01-28T00:42:22.465Z,-3.64
2017-01-28T00:43:22.481Z,-3.54
2017-01-28T00:44:22.488Z,-3.59
2017-01-28T00:46:22.121Z,-3.62
2017-01-28T00:47:22.531Z,-3.76
2017-01-28T00:48:22.534Z,-3.71
2017-01-28T00:49:22.546Z,-3.6
2017-01-28T00:50:22.556Z,-3.64
2017-01-28T00:51:22.569Z,-3.75
2017-01-28T00:52:37.113Z,-3.66
2017-01-28T00:53:37.123Z,-3.62
2017-01-28T00:54:22.611Z,-3.71
2017-01-28T00:55:22.615Z,-3.76
2017-01-28T00:56:22.631Z,-3.83
2017-01-28T00:57:22.641Z,-3.86
2017-01-28T00:58:22.267Z,-3.83
2017-01-28T00:59:22.663Z,-3.86
2017-01-28T01:00:22.672Z,-3.88
2017-01-28T01:02:22.702Z,-3.96
2017-01-28T01:04:22.722Z,-3.96
2017-01-28T01:05:22.773Z,-3.83
2017-01-28T01:06:22.747Z,-3.85
2017-01-28T01:07:22.754Z,-3.83
2017-01-28T01:08:22.767Z,-3.86
2017-01-28T01:09:22.786Z,-3.66
2017-01-28T01:10:22.795Z,-3.86
2017-01-28T01:11:37.334Z,-3.86
2017-01-28T01:12:36.959Z,-3.9
2017-01-28T01:13:22.827Z,-3.88
2017-01-28T01:14:22.841Z,-3.93
2017-01-28T01:15:22.849Z,-3.88
2017-01-28T01:16:22.861Z,-3.93
2017-01-28T01:17:37.404Z,-4.06
2017-01-28T01:18:22.883Z,-3.99
2017-01-28T01:19:22.944Z,-4.1
2017-01-28T01:20:22.906Z,-4.1
2017-01-28T01:21:22.922Z,-4.15
2017-01-28T01:22:22.929Z,-4.2
2017-01-28T01:23:22.941Z,-4.11
2017-01-28T01:24:22.571Z,-4.17
2017-01-28T01:25:22.968Z,-4.07
2017-01-28T01:26:37.556Z,-4.06
2017-01-28T01:27:22.989Z,-4.07
2017-01-28T01:28:23.002Z,-4.06
2017-01-28T01:29:23.015Z,-3.91
2017-01-28T01:30:23.024Z,-4.03
2017-01-28T01:31:23.034Z,-3.99
2017-01-28T01:32:23.048Z,-3.99
2017-01-28T01:33:37.588Z,-3.99
2017-01-28T01:34:23.072Z,-4.04
2017-01-28T01:35:22.694Z,-3.91
2017-01-28T01:36:23.092Z,-3.93
2017-01-28T01:37:23.105Z,-3.94
2017-01-28T01:38:23.119Z,-4.01
2017-01-28T01:39:23.129Z,-3.88
2017-01-28T01:40:23.141Z,-3.85
2017-01-28T01:41:23.148Z,-3.91
2017-01-28T01:42:23.162Z,-4.1
2017-01-28T01:43:23.175Z,-4.1
2017-01-28T01:44:23.184Z,-4.12
2017-01-28T01:45:23.200Z,-4.1
2017-01-28T01:46:23.211Z,-4.12
2017-01-28T01:47:23.224Z,-4.01
2017-01-28T01:48:23.230Z,-3.91
2017-01-28T01:49:37.772Z,-4.01
2017-01-28T01:51:23.264Z,-4.04
2017-01-28T01:52:23.284Z,-4.04
2017-01-28T01:53:22.906Z,-4.11
2017-01-28T01:54:23.304Z,-4.04
2017-01-28T01:55:23.313Z,-3.9
2017-01-28T01:56:23.321Z,-3.94
2017-01-28T01:57:23.336Z,-3.93
2017-01-28T01:58:37.876Z,-3.96
2017-01-28T01:59:23.357Z,-3.93
2017-01-28T02:00:23.368Z,-3.96
2017-01-28T02:01:23.380Z,-4.01
2017-01-28T02:02:23.394Z,-4.03
2017-01-28T02:03:23.402Z,-4.06
2017-01-28T02:04:37.977Z,-4.01
2017-01-28T02:05:23.427Z,-4.04
2017-01-28T02:06:23.439Z,-4.1
2017-01-28T02:07:23.451Z,-4.21
2017-01-28T02:08:23.462Z,-4.1
2017-01-28T02:09:38.012Z,-4.11
2017-01-28T02:10:23.483Z,-4.11
2017-01-28T02:11:23.496Z,-4.14
2017-01-28T02:12:38.041Z,-4.04
2017-01-28T02:14:23.530Z,-4.01
2017-01-28T02:15:23.543Z,-4.15
2017-01-28T02:16:23.554Z,-4.25
2017-01-28T02:17:23.566Z,-4.18
2017-01-28T02:18:23.583Z,-4.15
2017-01-28T02:19:23.594Z,-4.03
2017-01-28T02:20:23.606Z,-4.04
2017-01-28T02:21:23.613Z,-4.11
2017-01-28T02:22:23.625Z,-4.1
2017-01-28T02:23:23.636Z,-4.1
2017-01-28T02:24:23.649Z,-4.11
2017-01-28T02:25:23.658Z,-4.18
2017-01-28T02:26:23.673Z,-4.15
2017-01-28T02:27:38.214Z,-4.24
2017-01-28T02:28:23.692Z,-4.21
2017-01-28T02:29:23.704Z,-4.15
2017-01-28T02:30:23.719Z,-4.29
2017-01-28T02:31:23.731Z,-4.3
2017-01-28T02:32:23.739Z,-4.29
2017-01-28T02:33:23.750Z,-4.25
2017-01-28T02:34:23.761Z,-4.35
2017-01-28T02:35:23.782Z,-4.3
2017-01-28T02:36:38.321Z,-4.25
2017-01-28T02:37:23.800Z,-4.2
2017-01-28T02:38:23.810Z,-4.24
2017-01-28T02:39:23.850Z,-4.36
2017-01-28T02:42:23.855Z,-4.24
2017-01-28T02:43:38.396Z,-4.25
2017-01-28T02:44:23.882Z,-4.28
2017-01-28T02:45:23.893Z,-4.24
2017-01-28T02:46:23.927Z,-4.24
2017-01-28T02:47:23.523Z,-4.22
2017-01-28T02:48:23.920Z,-4.32
2017-01-28T02:49:23.936Z,-4.36
2017-01-28T02:50:23.943Z,-4.25
2017-01-28T02:51:23.959Z,-4.39
2017-01-28T02:52:38.499Z,-4.35
2017-01-28T02:55:24.005Z,-4.2
2017-01-28T02:56:24.014Z,-4.21
2017-01-28T02:57:24.031Z,-4.17
2017-01-28T02:58:24.038Z,-4.21
2017-01-28T02:59:24.062Z,-4.15
2017-01-28T03:00:38.591Z,-4.35
2017-01-28T03:01:38.601Z,-4.21
2017-01-28T03:02:24.089Z,-4.21
2017-01-28T03:03:24.095Z,-4.28
2017-01-28T03:05:24.115Z,-4.22
2017-01-28T03:06:24.129Z,-4.18
2017-01-28T03:07:24.140Z,-4.2
2017-01-28T03:08:38.681Z,-4.18
2017-01-28T03:09:24.160Z,-4.22
2017-01-28T03:10:24.171Z,-4.17
2017-01-28T03:11:24.184Z,-4.22
2017-01-28T03:12:24.196Z,-4.2
2017-01-28T03:13:38.745Z,-4.12
2017-01-28T03:14:24.218Z,-4.24
2017-01-28T03:15:24.233Z,-4.36
2017-01-28T03:16:24.240Z,-4.39
2017-01-28T03:17:24.252Z,-4.35
2017-01-28T03:18:24.263Z,-4.29
2017-01-28T03:19:24.277Z,-4.24
2017-01-28T03:20:24.284Z,-4.36
2017-01-28T03:21:24.297Z,-4.36
2017-01-28T03:22:24.310Z,-4.22
2017-01-28T03:23:24.319Z,-4.22
2017-01-28T03:24:38.861Z,-4.28
2017-01-28T03:25:24.347Z,-4.2
2017-01-28T03:26:24.362Z,-4.21
2017-01-28T03:27:24.369Z,-4.21
2017-01-28T03:28:24.378Z,-4.33
2017-01-28T03:29:24.387Z,-4.22
2017-01-28T03:30:24.400Z,-4.36
2017-01-28T03:31:24.410Z,-4.39
2017-01-28T03:32:24.422Z,-4.38
2017-01-28T03:33:38.964Z,-4.39
2017-01-28T03:34:24.447Z,-4.46
2017-01-28T03:35:24.456Z,-4.43
2017-01-28T03:36:24.470Z,-4.39
2017-01-28T03:37:24.479Z,-4.36
2017-01-28T03:38:24.492Z,-4.4
2017-01-28T03:39:39.034Z,-4.29
2017-01-28T03:41:24.532Z,-4.3
2017-01-28T03:42:24.533Z,-4.25
2017-01-28T03:43:24.547Z,-4.39
2017-01-28T03:44:24.559Z,-4.46
2017-01-28T03:45:24.600Z,-4.46
2017-01-28T03:46:24.584Z,-4.5
2017-01-28T03:47:24.692Z,-4.61
2017-01-28T03:48:24.601Z,-4.49
2017-01-28T03:49:39.144Z,-4.39
2017-01-28T03:50:24.627Z,-4.38
2017-01-28T03:51:24.638Z,-4.38
2017-01-28T03:52:24.650Z,-4.4
2017-01-28T03:53:24.660Z,-4.43
2017-01-28T03:54:24.670Z,-4.46
2017-01-28T03:55:24.680Z,-4.42
2017-01-28T03:56:24.695Z,-4.46
2017-01-28T03:57:24.705Z,-4.43
2017-01-28T03:58:24.716Z,-4.38
2017-01-28T03:59:24.724Z,-4.36
2017-01-28T04:00:24.736Z,-4.35
2017-01-28T04:01:24.749Z,-4.4
2017-01-28T04:02:24.761Z,-4.42
2017-01-28T04:03:39.302Z,-4.43
2017-01-28T04:04:24.780Z,-4.46
2017-01-28T04:05:24.795Z,-4.5
2017-01-28T04:06:24.808Z,-4.58
2017-01-28T04:07:24.816Z,-4.6
2017-01-28T04:09:24.868Z,-4.56
2017-01-28T04:10:24.849Z,-4.47
2017-01-28T04:11:39.389Z,-4.51
2017-01-28T04:12:24.881Z,-4.58
2017-01-28T04:13:24.887Z,-4.5
2017-01-28T04:14:24.895Z,-4.5
2017-01-28T04:15:24.914Z,-4.58
2017-01-28T04:16:24.915Z,-4.5
2017-01-28T04:17:24.933Z,-4.56
2017-01-28T04:18:39.469Z,-4.6
2017-01-28T04:19:24.953Z,-4.65
2017-01-28T04:20:24.961Z,-4.6
2017-01-28T04:21:24.971Z,-4.6
2017-01-28T04:22:24.981Z,-4.58
2017-01-28T04:23:24.993Z,-4.58
2017-01-28T04:24:25.005Z,-4.5
2017-01-28T04:25:25.014Z,-4.49
2017-01-28T04:26:25.034Z,-4.43
2017-01-28T04:27:39.568Z,-4.5
2017-01-28T04:28:25.048Z,-4.54
2017-01-28T04:29:25.061Z,-4.53
2017-01-28T04:30:25.074Z,-4.58
2017-01-28T04:31:25.111Z,-4.53
2017-01-28T04:32:25.095Z,-4.6
2017-01-28T04:33:25.103Z,-4.6
2017-01-28T04:34:25.119Z,-4.53
2017-01-28T04:35:24.742Z,-4.54
2017-01-28T04:36:25.134Z,-4.56
2017-01-28T04:37:25.148Z,-4.65
2017-01-28T04:38:25.159Z,-4.56
2017-01-28T04:39:25.172Z,-4.53
2017-01-28T04:40:25.193Z,-4.51
2017-01-28T04:41:25.194Z,-4.51
2017-01-28T04:43:39.744Z,-4.53
2017-01-28T04:44:25.229Z,-4.56
2017-01-28T04:45:25.244Z,-4.69
2017-01-28T04:46:25.251Z,-4.61
2017-01-28T04:47:25.260Z,-4.61
2017-01-28T04:48:25.272Z,-4.58
2017-01-28T04:49:25.290Z,-4.63
2017-01-28T04:50:24.906Z,-4.65
2017-01-28T04:51:25.304Z,-4.58
2017-01-28T04:52:25.318Z,-4.63
2017-01-28T04:53:24.941Z,-4.72
2017-01-28T04:54:39.482Z,-4.83
2017-01-28T04:55:25.348Z,-4.71
2017-01-28T04:56:25.359Z,-4.6
2017-01-28T04:57:25.013Z,-4.68
2017-01-28T04:58:25.383Z,-4.68
2017-01-28T04:59:39.927Z,-4.74
2017-01-28T05:00:25.017Z,-4.67
2017-01-28T05:01:25.415Z,-4.71
2017-01-28T05:02:25.426Z,-4.63
2017-01-28T05:04:25.450Z,-4.72
2017-01-28T05:05:25.460Z,-4.6
2017-01-28T05:06:25.470Z,-4.74
2017-01-28T05:07:40.012Z,-4.71
2017-01-28T05:08:40.023Z,-4.77
2017-01-28T05:09:25.508Z,-4.79
2017-01-28T05:10:25.519Z,-4.85
2017-01-28T05:11:25.527Z,-4.86
2017-01-28T05:12:25.538Z,-4.92
2017-01-28T05:13:25.548Z,-4.89
2017-01-28T05:14:40.091Z,-5.07
2017-01-28T05:17:25.599Z,-4.87
2017-01-28T05:18:25.607Z,-4.87
2017-01-28T05:19:25.615Z,-4.95
2017-01-28T05:20:25.627Z,-4.79
2017-01-28T05:21:25.638Z,-4.75
2017-01-28T05:22:25.655Z,-4.71
2017-01-28T05:23:25.691Z,-4.75
2017-01-28T05:24:25.668Z,-4.72
2017-01-28T05:25:25.882Z,-4.74
2017-01-28T05:26:25.694Z,-4.81
2017-01-28T05:27:25.702Z,-4.85
2017-01-28T05:28:25.714Z,-4.95
2017-01-28T05:29:25.723Z,-4.9
2017-01-28T05:30:25.738Z,-4.89
2017-01-28T05:31:25.746Z,-4.86
2017-01-28T05:32:25.764Z,-4.87
2017-01-28T05:33:25.771Z,-4.83
2017-01-28T05:34:25.779Z,-4.75
2017-01-28T05:35:25.792Z,-4.85
2017-01-28T05:36:25.805Z,-4.79
2017-01-28T05:37:40.344Z,-4.69
2017-01-28T05:38:25.822Z,-4.68
2017-01-28T05:39:25.836Z,-4.79
2017-01-28T05:40:25.848Z,-4.85
2017-01-28T05:41:25.867Z,-4.87
2017-01-28T05:42:25.868Z,-4.75
2017-01-28T05:43:25.881Z,-4.83
2017-01-28T05:44:25.889Z,-4.86
2017-01-28T05:45:25.898Z,-5
2017-01-28T05:46:40.442Z,-4.9
2017-01-28T05:47:25.924Z,-4.86
2017-01-28T05:48:25.966Z,-4.83
2017-01-28T05:49:25.944Z,-4.86
2017-01-28T05:50:25.957Z,-4.87
2017-01-28T05:51:25.969Z,-4.87
2017-01-28T05:52:25.978Z,-4.83
2017-01-28T05:53:40.519Z,-4.86
2017-01-28T05:54:26.000Z,-4.9
2017-01-28T05:55:40.539Z,-4.99
2017-01-28T05:56:40.550Z,-5.13
2017-01-28T05:57:26.034Z,-5.07
2017-01-28T05:58:26.043Z,-4.95
2017-01-28T05:59:26.052Z,-5
2017-01-28T06:00:26.065Z,-4.97
2017-01-28T06:01:26.074Z,-5.1
2017-01-28T06:02:40.615Z,-4.93
2017-01-28T06:04:26.106Z,-4.96
2017-01-28T06:05:26.118Z,-5.08
2017-01-28T06:06:26.142Z,-5.08
2017-01-28T06:07:26.139Z,-5.07
2017-01-28T06:08:26.151Z,-5.11
2017-01-28T06:09:40.696Z,-5.08
2017-01-28T06:10:26.177Z,-5.03
2017-01-28T06:11:26.184Z,-5.04
2017-01-28T06:12:26.193Z,-4.96
2017-01-28T06:13:26.204Z,-4.97
2017-01-28T06:14:26.224Z,-4.97
2017-01-28T06:15:26.231Z,-5.1
2017-01-28T06:16:26.241Z,-5.14
2017-01-28T06:17:26.256Z,-5.18
2017-01-28T06:18:40.788Z,-5.25
2017-01-28T06:20:26.284Z,-5.27
2017-01-28T06:23:26.315Z,-5.32
2017-01-28T06:24:26.376Z,-5.18
2017-01-28T06:25:25.953Z,-5.17
2017-01-28T06:26:26.375Z,-5.14
2017-01-28T06:27:26.382Z,-5.1
2017-01-28T06:28:26.372Z,-5.19
2017-01-28T06:29:40.907Z,-5.19
2017-01-28T06:30:26.394Z,-5.19
2017-01-28T06:31:26.399Z,-5.18
2017-01-28T06:32:26.413Z,-5.22
2017-01-28T06:33:26.423Z,-5.29
2017-01-28T06:34:40.963Z,-5.25
2017-01-28T06:35:26.446Z,-5.26
2017-01-28T06:36:26.454Z,-5.14
2017-01-28T06:37:26.465Z,-5.07
2017-01-28T06:38:26.476Z,-4.99
2017-01-28T06:39:26.487Z,-4.96
2017-01-28T06:40:26.499Z,-5.18
2017-01-28T06:41:26.507Z,-5.22
2017-01-28T06:42:26.520Z,-5.25
2017-01-28T06:43:26.541Z,-5.17
2017-01-28T06:44:41.070Z,-5.33
2017-01-28T06:45:26.551Z,-5.23
2017-01-28T06:46:26.564Z,-5.35
2017-01-28T06:47:26.571Z,-5.39
2017-01-28T06:48:26.585Z,-5.36
2017-01-28T06:49:40.740Z,-5.35
2017-01-28T06:50:26.608Z,-5.35
2017-01-28T06:53:26.641Z,-5.3
2017-01-28T06:54:26.650Z,-5.3
2017-01-28T06:55:26.662Z,-5.29
2017-01-28T06:56:26.672Z,-5.35
2017-01-28T06:57:26.680Z,-5.41
2017-01-28T06:58:26.693Z,-5.35
2017-01-28T06:59:26.704Z,-5.32
2017-01-28T07:00:26.715Z,-5.35
2017-01-28T07:01:26.724Z,-5.36
2017-01-28T07:02:26.735Z,-5.47
2017-01-28T07:03:26.745Z,-5.32
2017-01-28T07:04:26.764Z,-5.44
2017-01-28T07:05:26.768Z,-5.19
2017-01-28T07:06:26.776Z,-5.29
2017-01-28T07:07:26.789Z,-5.25
2017-01-28T07:09:26.813Z,-5.32
2017-01-28T07:10:26.436Z,-5.25
2017-01-28T07:11:26.830Z,-5.32
2017-01-28T07:12:26.844Z,-5.35
2017-01-28T07:13:26.890Z,-5.29
2017-01-28T07:14:26.861Z,-5.41
2017-01-28T07:15:26.874Z,-5.23
2017-01-28T07:16:26.886Z,-5.26
2017-01-28T07:17:26.904Z,-5.29
2017-01-28T07:18:26.958Z,-5.3
2017-01-28T07:19:26.925Z,-5.32
2017-01-28T07:20:26.934Z,-5.29
2017-01-28T07:21:41.469Z,-5.19
2017-01-28T07:22:26.952Z,-5.25
2017-01-28T07:24:26.971Z,-5.13
2017-01-28T07:25:26.984Z,-5.06
2017-01-28T07:26:26.993Z,-4.92
2017-01-28T07:27:27.006Z,-4.92
2017-01-28T07:28:27.014Z,-4.93
2017-01-28T07:29:27.025Z,-4.83
2017-01-28T07:30:27.038Z,-4.9
2017-01-28T07:31:27.048Z,-4.93
2017-01-28T07:32:27.063Z,-4.96
2017-01-28T07:33:27.071Z,-5.03
2017-01-28T07:34:27.079Z,-4.92
2017-01-28T07:35:27.091Z,-5
2017-01-28T07:36:26.719Z,-5.03
2017-01-28T07:37:41.643Z,-4.96
2017-01-28T07:38:27.124Z,-4.86
2017-01-28T07:39:27.136Z,-4.86
2017-01-28T07:40:27.149Z,-4.79
2017-01-28T07:41:27.189Z,-4.6
2017-01-28T07:42:27.167Z,-4.71
2017-01-28T07:43:27.179Z,-4.67
2017-01-28T07:44:27.196Z,-4.72
2017-01-28T07:45:27.202Z,-4.63
2017-01-28T07:46:27.249Z,-4.65
2017-01-28T07:47:27.224Z,-4.61
2017-01-28T07:48:27.235Z,-4.65
2017-01-28T07:49:27.245Z,-4.56
2017-01-28T07:50:27.562Z,-4.49
2017-01-28T07:51:27.267Z,-4.53
2017-01-28T07:52:27.280Z,-4.49
2017-01-28T07:53:41.848Z,-4.4
2017-01-28T07:55:27.311Z,-4.38
2017-01-28T07:56:27.324Z,-4.29
2017-01-28T07:57:27.337Z,-4.25
2017-01-28T07:58:27.389Z,-4.28
2017-01-28T07:59:27.360Z,-4.17
2017-01-28T08:00:27.373Z,-4.17
2017-01-28T08:01:27.378Z,-4.15
2017-01-28T08:02:41.923Z,-4.15
2017-01-28T08:03:41.964Z,-4.14
2017-01-28T08:04:27.413Z,-4.1
2017-01-28T08:05:27.427Z,-4.14
2017-01-28T08:06:27.051Z,-4.01
2017-01-28T08:07:27.449Z,-4
2017-01-28T08:08:27.461Z,-3.99
2017-01-28T08:11:27.500Z,-4.04
2017-01-28T08:12:27.509Z,-3.86
2017-01-28T08:14:27.530Z,-3.88
2017-01-28T08:15:27.542Z,-3.85
2017-01-28T08:16:27.554Z,-3.85
2017-01-28T08:17:27.567Z,-3.88
2017-01-28T08:18:42.108Z,-3.83
2017-01-28T08:19:42.119Z,-3.75
2017-01-28T08:20:27.222Z,-3.71
2017-01-28T08:21:27.612Z,-3.76
2017-01-28T08:22:27.628Z,-3.72
2017-01-28T08:23:27.646Z,-3.81
2017-01-28T08:24:42.180Z,-3.71
2017-01-28T08:25:27.663Z,-3.57
2017-01-28T08:26:27.672Z,-3.54
2017-01-28T08:27:27.717Z,-3.6
2017-01-28T08:28:27.697Z,-3.53
2017-01-28T08:29:27.709Z,-3.39
2017-01-28T08:30:28.019Z,-3.46
2017-01-28T08:31:27.732Z,-3.42
2017-01-28T08:32:27.773Z,-3.35
2017-01-28T08:33:42.289Z,-3.35
2017-01-28T08:34:27.768Z,-3.33
2017-01-28T08:35:27.780Z,-3.35
2017-01-28T08:36:27.793Z,-3.38
2017-01-28T08:37:27.803Z,-3.28
2017-01-28T08:38:27.816Z,-3.24
2017-01-28T08:39:27.829Z,-3.2
2017-01-28T08:40:27.843Z,-3.07
2017-01-28T08:41:27.855Z,-3.06
2017-01-28T08:42:27.866Z,-3.06
2017-01-28T08:43:27.877Z,-2.92
2017-01-28T08:44:27.891Z,-2.97
2017-01-28T08:45:27.903Z,-2.85
2017-01-28T08:46:42.448Z,-2.88
2017-01-28T08:47:27.928Z,-2.85
2017-01-28T08:48:27.938Z,-2.79
2017-01-28T08:49:42.481Z,-2.77
2017-01-28T08:50:27.964Z,-2.79
2017-01-28T08:51:27.978Z,-2.7
2017-01-28T08:52:27.987Z,-2.6
2017-01-28T08:53:28.000Z,-2.61
2017-01-28T08:54:28.015Z,-2.7
2017-01-28T08:55:28.029Z,-2.53
2017-01-28T08:56:42.568Z,-2.52
2017-01-28T08:58:28.064Z,-2.4
2017-01-28T08:59:28.075Z,-2.35
2017-01-28T09:00:28.089Z,-2.35
2017-01-28T09:01:28.103Z,-2.3
2017-01-28T09:02:28.114Z,-2.26
2017-01-28T09:03:28.126Z,-2.18
2017-01-28T09:04:28.140Z,-2.15
2017-01-28T09:05:42.681Z,-2.05
2017-01-28T09:06:27.775Z,-2.18
2017-01-28T09:07:28.177Z,-2.06
2017-01-28T09:08:28.191Z,-2.09
2017-01-28T09:09:28.202Z,-2.06
2017-01-28T09:10:28.214Z,-2.09
2017-01-28T09:11:28.228Z,-2.08
2017-01-28T09:12:42.773Z,-2.05
2017-01-28T09:13:28.255Z,-2.09
2017-01-28T09:14:28.270Z,-2
2017-01-28T09:16:28.292Z,-1.94
2017-01-28T09:17:28.305Z,-1.88
2017-01-28T09:18:28.319Z,-1.91
2017-01-28T09:19:28.329Z,-1.84
2017-01-28T09:20:42.876Z,-1.88
2017-01-28T09:21:28.357Z,-1.91
2017-01-28T09:22:28.371Z,-1.77
2017-01-28T09:23:28.385Z,-1.79
2017-01-28T09:24:28.397Z,-1.72
2017-01-28T09:25:28.411Z,-1.73
2017-01-28T09:26:28.424Z,-1.79
2017-01-28T09:27:28.435Z,-1.84
2017-01-28T09:29:28.460Z,-1.7
2017-01-28T09:30:28.477Z,-1.73
2017-01-28T09:31:28.488Z,-1.72
2017-01-28T09:32:28.507Z,-1.62
2017-01-28T09:33:28.515Z,-1.61
2017-01-28T09:34:28.527Z,-1.64
2017-01-28T09:35:28.540Z,-1.56
2017-01-28T09:36:28.553Z,-1.54
2017-01-28T09:37:28.572Z,-1.51
2017-01-28T09:38:28.580Z,-1.48
2017-01-28T09:39:28.591Z,-1.38
2017-01-28T09:40:28.609Z,-1.38
2017-01-28T09:41:28.618Z,-1.25
2017-01-28T09:42:28.634Z,-1.3
2017-01-28T09:44:43.190Z,-1.3
2017-01-28T09:45:28.673Z,-1.23
2017-01-28T09:47:28.707Z,-1.28
2017-01-28T09:48:28.719Z,-1.25
2017-01-28T09:49:28.726Z,-1.3
2017-01-28T09:50:28.741Z,-1.23
2017-01-28T09:51:28.751Z,-1.27
2017-01-28T09:52:28.768Z,-1.13
2017-01-28T09:53:43.311Z,-1.15
2017-01-28T09:54:43.324Z,-1.13
2017-01-28T09:55:28.807Z,-1.13
2017-01-28T09:56:28.823Z,-1.17
2017-01-28T09:57:28.834Z,-1.2
2017-01-28T09:58:28.850Z,-1.13
2017-01-28T09:59:43.394Z,-1.16
2017-01-28T10:00:28.879Z,-1.28
2017-01-28T10:02:28.904Z,-1.25
2017-01-28T10:03:28.915Z,-1.19
2017-01-28T10:04:28.929Z,-1.17
2017-01-28T10:05:28.944Z,-1.05
2017-01-28T10:06:28.957Z,-0.99
2017-01-28T10:07:28.969Z,-1.02
2017-01-28T10:08:28.603Z,-0.99
2017-01-28T10:09:28.995Z,-0.97
2017-01-28T10:10:29.014Z,-0.91
2017-01-28T10:11:29.024Z,-0.76
2017-01-28T10:12:29.040Z,-0.65
2017-01-28T10:13:29.062Z,-0.55
2017-01-28T10:14:29.065Z,-0.57
2017-01-28T10:15:29.078Z,-0.64
2017-01-28T10:18:29.121Z,-0.52
2017-01-28T10:19:29.138Z,-0.6
2017-01-28T10:20:29.148Z,-0.62
2017-01-28T10:21:29.160Z,-0.64
2017-01-28T10:22:29.177Z,-0.67
2017-01-28T10:23:29.192Z,-0.72
2017-01-28T10:24:43.732Z,-0.73
2017-01-28T10:25:29.220Z,-0.64
2017-01-28T10:26:29.264Z,-0.65
2017-01-28T10:27:29.246Z,-0.67
2017-01-28T10:28:29.255Z,-0.72
2017-01-28T10:29:29.271Z,-0.65
2017-01-28T10:30:29.283Z,-0.64
2017-01-28T10:31:43.828Z,-0.58
2017-01-28T10:32:29.318Z,-0.61
2017-01-28T10:33:29.324Z,-0.46
2017-01-28T10:34:29.339Z,-0.43
2017-01-28T10:35:29.350Z,-0.49
2017-01-28T10:36:29.366Z,-0.51
2017-01-28T10:37:29.380Z,-0.22
2017-01-28T10:38:29.392Z,-0.28
2017-01-28T10:39:29.442Z,-0.23
2017-01-28T10:40:29.422Z,-0.28
2017-01-28T10:41:43.964Z,-0.31
2017-01-28T10:42:29.448Z,-0.39
2017-01-28T10:43:29.465Z,-0.39
2017-01-28T10:44:29.476Z,-0.36
2017-01-28T10:45:29.490Z,-0.39
2017-01-28T10:46:29.502Z,-0.21
2017-01-28T10:47:44.048Z,-0.21
2017-01-28T10:49:29.544Z,-0.22
2017-01-28T10:50:29.563Z,-0.18
2017-01-28T10:51:29.573Z,-0.26
2017-01-28T10:52:29.588Z,-0.21
2017-01-28T10:53:29.599Z,-0.07
2017-01-28T10:54:29.611Z,-0.08
2017-01-28T10:55:29.629Z,0.02
2017-01-28T10:56:44.171Z,0.08
2017-01-28T10:57:29.657Z,0.08
2017-01-28T10:58:29.668Z,0.15
2017-01-28T10:59:29.682Z,0.2
2017-01-28T11:00:29.694Z,0.18
2017-01-28T11:01:29.712Z,0.18
2017-01-28T11:02:29.724Z,0.18
2017-01-28T11:03:44.266Z,0.29
2017-01-28T11:04:29.754Z,0.31
2017-01-28T11:05:29.771Z,0.28
2017-01-28T11:06:29.777Z,0.32
2017-01-28T11:07:29.793Z,0.32
2017-01-28T11:08:29.806Z,0.14
2017-01-28T11:09:29.821Z,0.2
2017-01-28T11:10:29.837Z,0.18
2017-01-28T11:11:29.466Z,0.18
2017-01-28T11:12:29.474Z,-0.04
2017-01-28T11:13:29.878Z,-0.01
2017-01-28T11:14:29.890Z,0.18
2017-01-28T11:15:29.902Z,0.04
2017-01-28T11:16:29.917Z,-0.01
2017-01-28T11:17:29.934Z,0.15
2017-01-28T11:18:29.557Z,0.17
2017-01-28T11:19:44.490Z,0.18
2017-01-28T11:20:29.971Z,0.15
2017-01-28T11:23:30.014Z,0.35
2017-01-28T11:24:30.035Z,0.23
2017-01-28T11:25:30.084Z,0.18
2017-01-28T11:26:30.060Z,0.32
2017-01-28T11:27:30.072Z,0.29
2017-01-28T11:28:30.087Z,0.33
2017-01-28T11:29:30.098Z,0.39
2017-01-28T11:30:30.113Z,0.33
2017-01-28T11:31:30.126Z,0.42
2017-01-28T11:32:30.165Z,0.38
2017-01-28T11:33:29.770Z,0.5
2017-01-28T11:34:44.701Z,0.38
2017-01-28T11:37:30.211Z,0.53
2017-01-28T11:38:30.253Z,0.42
2017-01-28T11:39:30.244Z,0.46
2017-01-28T11:40:30.257Z,0.46
2017-01-28T11:41:30.266Z,0.55
2017-01-28T11:42:30.318Z,0.68
2017-01-28T11:43:30.294Z,0.69
2017-01-28T11:44:30.332Z,0.69
2017-01-28T11:45:30.327Z,0.76
2017-01-28T11:46:30.374Z,0.65
2017-01-28T11:47:30.507Z,0.73
2017-01-28T11:48:30.374Z,0.58
2017-01-28T11:51:30.410Z,0.51
2017-01-28T11:52:30.426Z,0.57
2017-01-28T11:53:30.439Z,0.58
2017-01-28T11:54:30.452Z,0.7
2017-01-28T11:55:30.469Z,0.75
2017-01-28T11:56:30.482Z,0.72
2017-01-28T11:57:30.503Z,0.84
2017-01-28T11:58:30.517Z,0.76
2017-01-28T11:59:30.527Z,0.72
2017-01-28T12:00:30.542Z,0.75
2017-01-28T12:01:30.552Z,0.73
2017-01-28T12:02:30.573Z,0.72
2017-01-28T12:03:30.582Z,0.86
2017-01-28T12:04:30.597Z,0.87
2017-01-28T12:05:30.609Z,0.8
2017-01-28T12:06:45.156Z,0.88
2017-01-28T12:08:30.657Z,0.87
2017-01-28T12:10:30.683Z,1.06
2017-01-28T12:11:30.699Z,1.06
2017-01-28T12:12:30.712Z,0.97
2017-01-28T12:13:30.728Z,1.02
2017-01-28T12:14:45.272Z,1
2017-01-28T12:15:30.755Z,1
2017-01-28T12:16:45.299Z,1.14
2017-01-28T12:17:30.784Z,1.11
2017-01-28T12:18:30.797Z,1.02
2017-01-28T12:19:30.814Z,1
2017-01-28T12:20:30.829Z,1.09
2017-01-28T12:21:30.841Z,1.02
2017-01-28T12:25:30.899Z,1.12
2017-01-28T12:26:30.911Z,1.16
2017-01-28T12:27:30.931Z,1.05
2017-01-28T12:28:30.945Z,1.14
2017-01-28T12:29:30.966Z,1.11
2017-01-28T12:30:31.023Z,1.14
2017-01-28T12:31:45.516Z,1.09
2017-01-28T12:32:31.005Z,1.14
2017-01-28T12:33:31.021Z,1.22
2017-01-28T12:34:31.033Z,1.27
2017-01-28T12:35:31.043Z,1.11
2017-01-28T12:36:31.062Z,1.15
2017-01-28T12:37:31.078Z,1.09
2017-01-28T12:38:45.620Z,1.26
2017-01-28T12:39:31.102Z,1.16
2017-01-28T12:40:31.116Z,1.15
2017-01-28T12:42:31.146Z,1.09
2017-01-28T12:43:31.167Z,1.23
2017-01-28T12:44:30.790Z,1.14
2017-01-28T12:45:31.194Z,1.24
2017-01-28T12:46:31.203Z,1.18
2017-01-28T12:47:31.249Z,1.05
2017-01-28T12:48:31.234Z,1.11
2017-01-28T12:49:31.250Z,1.06
2017-01-28T12:50:31.265Z,1.11
2017-01-28T12:51:31.280Z,1.12
2017-01-28T12:52:31.293Z,1.34
2017-01-28T12:53:31.307Z,1.22
2017-01-28T12:54:45.858Z,1.33
2017-01-28T12:55:31.337Z,1.36
2017-01-28T12:56:31.355Z,1.34
2017-01-28T12:57:31.376Z,1.24
2017-01-28T12:58:31.408Z,1.44
2017-01-28T12:59:31.401Z,1.36
2017-01-28T13:00:31.413Z,1.3
2017-01-28T13:01:31.430Z,1.2
2017-01-28T13:02:31.442Z,1.22
2017-01-28T13:03:45.988Z,1.15
2017-01-28T13:04:31.474Z,1.24
2017-01-28T13:05:31.493Z,1.18
2017-01-28T13:06:31.503Z,1.2
2017-01-28T13:07:31.518Z,1.12
2017-01-28T13:08:31.536Z,1.08
2017-01-28T13:09:46.078Z,1.09
2017-01-28T13:10:31.572Z,1.12
2017-01-28T13:12:31.593Z,1.15
2017-01-28T13:13:31.607Z,1.11
2017-01-28T13:14:31.618Z,1.22
2017-01-28T13:15:31.632Z,1.2
2017-01-28T13:16:31.651Z,1.09
2017-01-28T13:17:31.694Z,1.08
2017-01-28T13:18:31.676Z,1.15
2017-01-28T13:19:31.692Z,1.06
2017-01-28T13:20:31.720Z,1.14
2017-01-28T13:21:31.724Z,1.14
2017-01-28T13:22:31.739Z,1.15
2017-01-28T13:23:31.753Z,1.16
2017-01-28T13:25:31.782Z,1.23
2017-01-28T13:26:31.797Z,1.16
2017-01-28T13:27:31.810Z,1.16
2017-01-28T13:28:31.831Z,1.24
2017-01-28T13:29:31.840Z,1.18
2017-01-28T13:30:31.857Z,1.15
2017-01-28T13:31:31.876Z,1.15
2017-01-28T13:32:31.885Z,1.15
2017-01-28T13:33:31.906Z,1.18
2017-01-28T13:34:31.916Z,1.29
2017-01-28T13:35:31.929Z,1.24
2017-01-28T13:36:31.948Z,1.08
2017-01-28T13:37:31.964Z,1.12
2017-01-28T13:38:31.974Z,1.09
2017-01-28T13:39:31.986Z,1.23
2017-01-28T13:40:32.002Z,1.16
2017-01-28T13:41:46.548Z,1.09
2017-01-28T13:42:32.038Z,1.06
2017-01-28T13:43:32.050Z,1.09
2017-01-28T13:44:32.065Z,1.12
2017-01-28T13:45:32.077Z,1.18
2017-01-28T13:46:32.091Z,1.08
2017-01-28T13:47:32.105Z,1.12
2017-01-28T13:48:32.118Z,1
2017-01-28T13:49:46.667Z,1.08
2017-01-28T13:50:46.680Z,1.09
2017-01-28T13:51:32.161Z,1.14
2017-01-28T13:52:32.177Z,1.15
2017-01-28T13:53:32.194Z,1.24
2017-01-28T13:54:32.207Z,1.12